sensor_id;sensor_type;location;lat;lon;timestamp;pressure;altitude;pressure_sealevel;temperature;humidity
13420;BME280;6781;58.440;15.470;2022-07-10T00:01:41;100270.97;;;13.28;100.00
13420;BME280;6781;58.440;15.470;2022-07-10T00:04:09;100381.06;;;13.93;100.00
13420;BME280;6781;58.440;15.470;2022-07-10T00:06:50;100465.47;;;14.37;100.00
13420;BME280;6781;58.440;15.470;2022-07-10T00:09:33;100443.47;;;14.40;100.00
13420;BME280;6781;58.440;15.470;2022-07-10T00:21:24;100432.25;;;14.57;100.00
13420;BME280;6781;58.440;15.470;2022-07-10T00:24:05;100427.84;;;14.57;100.00
13420;BME280;6781;58.440;15.470;2022-07-10T00:26:41;100291.56;;;13.66;100.00
13420;BME280;6781;58.440;15.470;2022-07-10T00:29:08;100416.81;;;14.46;100.00
13420;BME280;6781;58.440;15.470;2022-07-10T00:31:36;100283.66;;;13.58;100.00
13420;BME280;6781;58.440;15.470;2022-07-10T00:34:07;100351.50;;;14.02;100.00
13420;BME280;6781;58.440;15.470;2022-07-10T00:36:37;100308.25;;;13.74;100.00
13420;BME280;6781;58.440;15.470;2022-07-10T00:39:06;100299.38;;;13.66;100.00
13420;BME280;6781;58.440;15.470;2022-07-10T00:41:50;100214.22;;;13.04;100.00
13420;BME280;6781;58.440;15.470;2022-07-10T00:44:34;100389.06;;;14.09;100.00
13420;BME280;6781;58.440;15.470;2022-07-10T00:47:16;100426.78;;;14.50;100.00
13420;BME280;6781;58.440;15.470;2022-07-10T00:49:46;100420.88;;;14.30;100.00
13420;BME280;6781;58.440;15.470;2022-07-10T01:05:10;100432.84;;;14.51;100.00
13420;BME280;6781;58.440;15.470;2022-07-10T01:07:51;100425.75;;;14.43;100.00
13420;BME280;6781;58.440;15.470;2022-07-10T01:10:34;100401.44;;;14.25;100.00
13420;BME280;6781;58.440;15.470;2022-07-10T01:13:15;100432.06;;;14.41;100.00
13420;BME280;6781;58.440;15.470;2022-07-10T01:15:56;100390.03;;;14.08;100.00
13420;BME280;6781;58.440;15.470;2022-07-10T01:18:25;100434.53;;;14.24;100.00
13420;BME280;6781;58.440;15.470;2022-07-10T01:21:27;100426.91;;;14.31;100.00
13420;BME280;6781;58.440;15.470;2022-07-10T01:23:55;100407.53;;;14.16;100.00
13420;BME280;6781;58.440;15.470;2022-07-10T01:26:23;100434.91;;;14.29;100.00
13420;BME280;6781;58.440;15.470;2022-07-10T01:28:52;100436.25;;;14.33;100.00
13420;BME280;6781;58.440;15.470;2022-07-10T01:31:19;100432.97;;;14.31;100.00
13420;BME280;6781;58.440;15.470;2022-07-10T01:33:47;100434.75;;;14.31;100.00
13420;BME280;6781;58.440;15.470;2022-07-10T01:36:16;100329.53;;;13.51;100.00
13420;BME280;6781;58.440;15.470;2022-07-10T01:38:45;100438.31;;;14.12;100.00
13420;BME280;6781;58.440;15.470;2022-07-10T01:41:12;100429.28;;;13.89;100.00
13420;BME280;6781;58.440;15.470;2022-07-10T01:43:39;100415.28;;;14.08;100.00
13420;BME280;6781;58.440;15.470;2022-07-10T01:46:10;100437.44;;;14.21;100.00
13420;BME280;6781;58.440;15.470;2022-07-10T01:48:38;100435.03;;;14.28;100.00
13420;BME280;6781;58.440;15.470;2022-07-10T01:51:19;100427.53;;;14.25;100.00
13420;BME280;6781;58.440;15.470;2022-07-10T01:53:52;100421.41;;;14.16;100.00
13420;BME280;6781;58.440;15.470;2022-07-10T01:56:18;100447.03;;;14.21;100.00
13420;BME280;6781;58.440;15.470;2022-07-10T01:58:45;100436.91;;;14.18;100.00
13420;BME280;6781;58.440;15.470;2022-07-10T02:01:12;100436.81;;;14.10;100.00
13420;BME280;6781;58.440;15.470;2022-07-10T02:03:39;100449.72;;;14.11;100.00
13420;BME280;6781;58.440;15.470;2022-07-10T02:09:01;100357.78;;;13.46;100.00
13420;BME280;6781;58.440;15.470;2022-07-10T02:11:27;100244.94;;;12.63;100.00
13420;BME280;6781;58.440;15.470;2022-07-10T02:13:54;100392.69;;;13.63;100.00
13420;BME280;6781;58.440;15.470;2022-07-10T02:16:21;100447.53;;;13.89;100.00
13420;BME280;6781;58.440;15.470;2022-07-10T02:18:48;100434.94;;;13.84;100.00
13420;BME280;6781;58.440;15.470;2022-07-10T02:21:15;100429.69;;;13.66;100.00
13420;BME280;6781;58.440;15.470;2022-07-10T02:23:42;100445.66;;;13.81;100.00
13420;BME280;6781;58.440;15.470;2022-07-10T02:26:10;100438.81;;;13.80;100.00
13420;BME280;6781;58.440;15.470;2022-07-10T02:28:36;100426.59;;;13.53;100.00
13420;BME280;6781;58.440;15.470;2022-07-10T02:31:04;100307.88;;;12.86;100.00
13420;BME280;6781;58.440;15.470;2022-07-10T02:33:30;100455.47;;;13.70;100.00
13420;BME280;6781;58.440;15.470;2022-07-10T02:35:57;100285.47;;;12.66;100.00
13420;BME280;6781;58.440;15.470;2022-07-10T02:38:24;100441.91;;;13.66;100.00
13420;BME280;6781;58.440;15.470;2022-07-10T02:40:51;100389.16;;;13.27;100.00
13420;BME280;6781;58.440;15.470;2022-07-10T02:43:19;100452.66;;;13.53;100.00
13420;BME280;6781;58.440;15.470;2022-07-10T02:45:46;100322.81;;;12.84;100.00
13420;BME280;6781;58.440;15.470;2022-07-10T02:48:14;100398.06;;;13.15;100.00
13420;BME280;6781;58.440;15.470;2022-07-10T02:50:41;100460.91;;;13.49;100.00
13420;BME280;6781;58.440;15.470;2022-07-10T02:53:07;100458.72;;;13.44;100.00
13420;BME280;6781;58.440;15.470;2022-07-10T02:55:34;100452.84;;;13.42;100.00
13420;BME280;6781;58.440;15.470;2022-07-10T02:58:01;100374.88;;;12.84;100.00
13420;BME280;6781;58.440;15.470;2022-07-10T03:00:30;100457.09;;;13.43;100.00
13420;BME280;6781;58.440;15.470;2022-07-10T03:02:57;100465.28;;;13.48;100.00
13420;BME280;6781;58.440;15.470;2022-07-10T03:05:23;100441.50;;;13.33;100.00
13420;BME280;6781;58.440;15.470;2022-07-10T03:07:50;100386.47;;;12.99;100.00
13420;BME280;6781;58.440;15.470;2022-07-10T03:10:17;100443.63;;;13.48;100.00
13420;BME280;6781;58.440;15.470;2022-07-10T03:12:44;100244.09;;;12.26;100.00
13420;BME280;6781;58.440;15.470;2022-07-10T03:15:11;100460.41;;;13.73;100.00
13420;BME280;6781;58.440;15.470;2022-07-10T03:17:39;100428.59;;;13.32;100.00
13420;BME280;6781;58.440;15.470;2022-07-10T03:20:06;100450.41;;;13.68;100.00
13420;BME280;6781;58.440;15.470;2022-07-10T03:22:34;100450.06;;;13.81;100.00
13420;BME280;6781;58.440;15.470;2022-07-10T03:25:01;100468.06;;;14.19;100.00
13420;BME280;6781;58.440;15.470;2022-07-10T03:27:30;100357.69;;;13.38;100.00
13420;BME280;6781;58.440;15.470;2022-07-10T03:29:56;100478.91;;;14.42;100.00
13420;BME280;6781;58.440;15.470;2022-07-10T03:32:23;100422.00;;;14.28;100.00
13420;BME280;6781;58.440;15.470;2022-07-10T03:34:51;100458.41;;;14.47;100.00
13420;BME280;6781;58.440;15.470;2022-07-10T03:37:18;100476.69;;;14.65;100.00
13420;BME280;6781;58.440;15.470;2022-07-10T03:39:45;100440.56;;;14.25;100.00
13420;BME280;6781;58.440;15.470;2022-07-10T03:42:12;100463.50;;;14.49;100.00
13420;BME280;6781;58.440;15.470;2022-07-10T03:44:38;100475.53;;;14.85;100.00
13420;BME280;6781;58.440;15.470;2022-07-10T03:47:05;100473.19;;;14.56;100.00
13420;BME280;6781;58.440;15.470;2022-07-10T03:49:32;100454.63;;;14.42;100.00
13420;BME280;6781;58.440;15.470;2022-07-10T03:52:01;100473.19;;;14.56;100.00
13420;BME280;6781;58.440;15.470;2022-07-10T03:54:28;100478.69;;;14.53;100.00
13420;BME280;6781;58.440;15.470;2022-07-10T03:56:55;100491.66;;;14.45;100.00
13420;BME280;6781;58.440;15.470;2022-07-10T03:59:40;100485.63;;;14.45;100.00
13420;BME280;6781;58.440;15.470;2022-07-10T04:02:06;100448.22;;;14.09;100.00
13420;BME280;6781;58.440;15.470;2022-07-10T04:04:33;100412.22;;;13.77;100.00
13420;BME280;6781;58.440;15.470;2022-07-10T04:07:03;100393.28;;;13.75;100.00
13420;BME280;6781;58.440;15.470;2022-07-10T04:09:31;100489.69;;;14.29;100.00
13420;BME280;6781;58.440;15.470;2022-07-10T04:11:58;100484.50;;;14.47;100.00
13420;BME280;6781;58.440;15.470;2022-07-10T04:14:24;100500.84;;;14.22;100.00
13420;BME280;6781;58.440;15.470;2022-07-10T04:16:51;100408.78;;;13.94;100.00
13420;BME280;6781;58.440;15.470;2022-07-10T04:19:18;100432.84;;;13.88;100.00
13420;BME280;6781;58.440;15.470;2022-07-10T04:21:47;100455.25;;;14.26;100.00
13420;BME280;6781;58.440;15.470;2022-07-10T04:24:15;100466.97;;;14.40;100.00
13420;BME280;6781;58.440;15.470;2022-07-10T04:26:42;100427.41;;;13.99;100.00
13420;BME280;6781;58.440;15.470;2022-07-10T04:29:09;100453.38;;;14.18;100.00
13420;BME280;6781;58.440;15.470;2022-07-10T04:31:35;100501.75;;;14.58;100.00
13420;BME280;6781;58.440;15.470;2022-07-10T04:34:02;100508.69;;;14.67;100.00
13420;BME280;6781;58.440;15.470;2022-07-10T04:36:29;100451.03;;;14.43;100.00
13420;BME280;6781;58.440;15.470;2022-07-10T04:38:56;100489.72;;;14.65;100.00
13420;BME280;6781;58.440;15.470;2022-07-10T04:41:25;100409.75;;;13.93;100.00
13420;BME280;6781;58.440;15.470;2022-07-10T04:43:52;100499.06;;;14.68;100.00
13420;BME280;6781;58.440;15.470;2022-07-10T04:46:18;100369.41;;;13.79;100.00
13420;BME280;6781;58.440;15.470;2022-07-10T04:48:45;100448.25;;;14.26;100.00
13420;BME280;6781;58.440;15.470;2022-07-10T04:51:12;100455.78;;;14.29;100.00
13420;BME280;6781;58.440;15.470;2022-07-10T04:53:39;100412.06;;;13.96;100.00
13420;BME280;6781;58.440;15.470;2022-07-10T04:56:06;100509.28;;;14.61;100.00
13420;BME280;6781;58.440;15.470;2022-07-10T04:58:34;100473.38;;;14.27;100.00
13420;BME280;6781;58.440;15.470;2022-07-10T05:01:02;100525.75;;;14.44;100.00
13420;BME280;6781;58.440;15.470;2022-07-10T05:03:29;100516.06;;;14.54;100.00
13420;BME280;6781;58.440;15.470;2022-07-10T05:05:56;100499.06;;;14.50;100.00
13420;BME280;6781;58.440;15.470;2022-07-10T05:08:22;100503.50;;;14.40;100.00
13420;BME280;6781;58.440;15.470;2022-07-10T05:10:49;100521.28;;;14.54;100.00
13420;BME280;6781;58.440;15.470;2022-07-10T05:13:16;100512.44;;;14.37;100.00
13420;BME280;6781;58.440;15.470;2022-07-10T05:15:45;100521.09;;;14.38;100.00
13420;BME280;6781;58.440;15.470;2022-07-10T05:18:12;100502.63;;;14.49;100.00
13420;BME280;6781;58.440;15.470;2022-07-10T05:20:39;100484.47;;;14.29;100.00
13420;BME280;6781;58.440;15.470;2022-07-10T05:23:08;100344.38;;;13.41;100.00
13420;BME280;6781;58.440;15.470;2022-07-10T05:25:34;100360.97;;;14.03;100.00
13420;BME280;6781;58.440;15.470;2022-07-10T05:28:03;100376.59;;;14.39;100.00
13420;BME280;6781;58.440;15.470;2022-07-10T05:30:29;100383.53;;;14.65;100.00
13420;BME280;6781;58.440;15.470;2022-07-10T05:33:00;100504.84;;;15.41;100.00
13420;BME280;6781;58.440;15.470;2022-07-10T05:35:26;100350.91;;;14.26;100.00
13420;BME280;6781;58.440;15.470;2022-07-10T05:37:53;100510.22;;;14.95;100.00
13420;BME280;6781;58.440;15.470;2022-07-10T05:40:20;100511.75;;;15.24;100.00
13420;BME280;6781;58.440;15.470;2022-07-10T05:42:47;100364.25;;;14.05;100.00
13420;BME280;6781;58.440;15.470;2022-07-10T05:45:14;100392.25;;;14.39;100.00
13420;BME280;6781;58.440;15.470;2022-07-10T05:47:41;100513.28;;;15.35;100.00
13420;BME280;6781;58.440;15.470;2022-07-10T05:50:09;100543.97;;;15.33;100.00
13420;BME280;6781;58.440;15.470;2022-07-10T05:52:36;100484.22;;;15.12;100.00
13420;BME280;6781;58.440;15.470;2022-07-10T05:55:03;100533.63;;;15.23;100.00
13420;BME280;6781;58.440;15.470;2022-07-10T05:57:31;100534.63;;;15.04;100.00
13420;BME280;6781;58.440;15.470;2022-07-10T05:59:57;100504.56;;;14.82;100.00
13420;BME280;6781;58.440;15.470;2022-07-10T06:02:24;100528.34;;;14.97;100.00
13420;BME280;6781;58.440;15.470;2022-07-10T06:04:51;100522.47;;;14.77;100.00
13420;BME280;6781;58.440;15.470;2022-07-10T06:07:19;100297.28;;;13.52;100.00
13420;BME280;6781;58.440;15.470;2022-07-10T06:09:46;100356.22;;;13.81;100.00
13420;BME280;6781;58.440;15.470;2022-07-10T06:12:14;100444.19;;;14.42;100.00
13420;BME280;6781;58.440;15.470;2022-07-10T06:14:42;100427.16;;;14.38;100.00
13420;BME280;6781;58.440;15.470;2022-07-10T06:17:08;100496.56;;;15.02;100.00
13420;BME280;6781;58.440;15.470;2022-07-10T06:19:35;100518.66;;;15.33;100.00
13420;BME280;6781;58.440;15.470;2022-07-10T06:22:03;100540.06;;;15.11;100.00
13420;BME280;6781;58.440;15.470;2022-07-10T06:24:49;100518.13;;;15.04;100.00
13420;BME280;6781;58.440;15.470;2022-07-10T06:27:16;100451.94;;;14.51;100.00
13420;BME280;6781;58.440;15.470;2022-07-10T06:29:42;100329.38;;;14.06;100.00
13420;BME280;6781;58.440;15.470;2022-07-10T06:32:13;100371.78;;;14.44;100.00
13420;BME280;6781;58.440;15.470;2022-07-10T06:34:39;100512.00;;;15.13;100.00
13420;BME280;6781;58.440;15.470;2022-07-10T06:37:06;100473.16;;;14.92;100.00
13420;BME280;6781;58.440;15.470;2022-07-10T06:39:33;100507.91;;;15.36;100.00
13420;BME280;6781;58.440;15.470;2022-07-10T06:42:03;100537.34;;;15.20;100.00
13420;BME280;6781;58.440;15.470;2022-07-10T06:44:30;100529.47;;;15.38;100.00
13420;BME280;6781;58.440;15.470;2022-07-10T06:46:57;100398.06;;;14.32;100.00
13420;BME280;6781;58.440;15.470;2022-07-10T06:49:46;100507.19;;;15.26;100.00
13420;BME280;6781;58.440;15.470;2022-07-10T06:52:16;100531.53;;;15.52;100.00
13420;BME280;6781;58.440;15.470;2022-07-10T06:54:47;100448.47;;;14.86;99.05
13420;BME280;6781;58.440;15.470;2022-07-10T06:57:16;100411.84;;;14.78;98.40
13420;BME280;6781;58.440;15.470;2022-07-10T06:59:43;100420.91;;;15.18;98.01
13420;BME280;6781;58.440;15.470;2022-07-10T07:02:10;100316.06;;;14.79;96.24
13420;BME280;6781;58.440;15.470;2022-07-10T07:04:37;100553.31;;;15.61;93.34
13420;BME280;6781;58.440;15.470;2022-07-10T07:07:04;100419.88;;;14.85;92.82
13420;BME280;6781;58.440;15.470;2022-07-10T07:09:31;100485.13;;;15.88;92.09
13420;BME280;6781;58.440;15.470;2022-07-10T07:11:58;100491.94;;;15.73;90.73
13420;BME280;6781;58.440;15.470;2022-07-10T07:14:27;100291.78;;;14.34;90.78
13420;BME280;6781;58.440;15.470;2022-07-10T07:16:53;100545.66;;;15.68;91.17
13420;BME280;6781;58.440;15.470;2022-07-10T07:19:26;100454.38;;;15.14;91.47
13420;BME280;6781;58.440;15.470;2022-07-10T07:21:58;100420.72;;;15.45;92.00
13420;BME280;6781;58.440;15.470;2022-07-10T07:24:42;100430.66;;;15.84;89.82
13420;BME280;6781;58.440;15.470;2022-07-10T07:27:19;100257.84;;;15.37;88.01
13420;BME280;6781;58.440;15.470;2022-07-10T07:29:49;100493.63;;;17.30;86.77
13420;BME280;6781;58.440;15.470;2022-07-10T07:32:16;100356.81;;;16.47;83.53
13420;BME280;6781;58.440;15.470;2022-07-10T07:34:43;100448.97;;;17.54;78.89
13420;BME280;6781;58.440;15.470;2022-07-10T07:37:12;100516.28;;;18.17;77.43
13420;BME280;6781;58.440;15.470;2022-07-10T07:39:39;100539.34;;;17.99;75.02
13420;BME280;6781;58.440;15.470;2022-07-10T07:42:06;100512.28;;;18.30;73.49
13420;BME280;6781;58.440;15.470;2022-07-10T07:44:33;100435.19;;;18.23;72.01
13420;BME280;6781;58.440;15.470;2022-07-10T07:47:05;100489.91;;;18.11;69.47
13420;BME280;6781;58.440;15.470;2022-07-10T07:49:34;100375.94;;;16.88;73.21
13420;BME280;6781;58.440;15.470;2022-07-10T07:52:01;100439.91;;;17.73;75.36
13420;BME280;6781;58.440;15.470;2022-07-10T07:54:28;100507.31;;;18.35;72.68
13420;BME280;6781;58.440;15.470;2022-07-10T07:56:55;100527.44;;;17.80;71.90
13420;BME280;6781;58.440;15.470;2022-07-10T07:59:23;100365.06;;;17.46;72.36
13420;BME280;6781;58.440;15.470;2022-07-10T08:01:49;100499.53;;;18.95;70.36
13420;BME280;6781;58.440;15.470;2022-07-10T08:04:18;100502.03;;;18.89;67.08
13420;BME280;6781;58.440;15.470;2022-07-10T08:06:44;100484.66;;;18.65;68.79
13420;BME280;6781;58.440;15.470;2022-07-10T08:09:11;100507.88;;;17.91;69.21
13420;BME280;6781;58.440;15.470;2022-07-10T08:11:38;100401.59;;;17.09;71.19
13420;BME280;6781;58.440;15.470;2022-07-10T08:14:05;100337.06;;;17.08;72.82
13420;BME280;6781;58.440;15.470;2022-07-10T08:16:32;100337.47;;;17.58;70.18
13420;BME280;6781;58.440;15.470;2022-07-10T08:18:59;100447.75;;;18.96;66.33
13420;BME280;6781;58.440;15.470;2022-07-10T08:21:27;100479.75;;;20.02;65.67
13420;BME280;6781;58.440;15.470;2022-07-10T08:23:54;100505.13;;;19.74;64.38
13420;BME280;6781;58.440;15.470;2022-07-10T08:26:21;100520.31;;;20.23;66.94
13420;BME280;6781;58.440;15.470;2022-07-10T08:28:48;100507.13;;;19.72;66.16
13420;BME280;6781;58.440;15.470;2022-07-10T08:31:14;100435.34;;;18.90;66.40
13420;BME280;6781;58.440;15.470;2022-07-10T08:33:41;100455.22;;;18.69;67.01
13420;BME280;6781;58.440;15.470;2022-07-10T08:36:08;100513.56;;;18.88;65.34
13420;BME280;6781;58.440;15.470;2022-07-10T08:38:37;100531.84;;;18.50;66.12
13420;BME280;6781;58.440;15.470;2022-07-10T08:41:05;100515.03;;;18.05;66.57
13420;BME280;6781;58.440;15.470;2022-07-10T08:43:32;100499.66;;;17.94;66.68
13420;BME280;6781;58.440;15.470;2022-07-10T08:45:59;100529.03;;;18.82;65.45
13420;BME280;6781;58.440;15.470;2022-07-10T08:48:29;100525.13;;;18.78;64.50
13420;BME280;6781;58.440;15.470;2022-07-10T08:51:03;100528.44;;;19.10;65.88
13420;BME280;6781;58.440;15.470;2022-07-10T08:53:31;100535.88;;;18.69;65.95
13420;BME280;6781;58.440;15.470;2022-07-10T08:56:00;100465.81;;;17.68;65.56
13420;BME280;6781;58.440;15.470;2022-07-10T08:58:27;100475.72;;;17.89;67.38
13420;BME280;6781;58.440;15.470;2022-07-10T09:00:54;100315.59;;;17.43;66.59
13420;BME280;6781;58.440;15.470;2022-07-10T09:03:21;100517.53;;;18.83;66.56
13420;BME280;6781;58.440;15.470;2022-07-10T09:05:48;100480.41;;;18.64;66.43
13420;BME280;6781;58.440;15.470;2022-07-10T09:08:21;100469.34;;;18.45;65.81
13420;BME280;6781;58.440;15.470;2022-07-10T09:10:48;100501.88;;;18.67;64.72
13420;BME280;6781;58.440;15.470;2022-07-10T09:13:17;100458.66;;;18.47;67.30
13420;BME280;6781;58.440;15.470;2022-07-10T09:15:48;100536.69;;;18.38;67.94
13420;BME280;6781;58.440;15.470;2022-07-10T09:18:18;100555.97;;;18.23;70.72
13420;BME280;6781;58.440;15.470;2022-07-10T09:20:45;100562.44;;;18.43;71.92
13420;BME280;6781;58.440;15.470;2022-07-10T09:23:16;100562.97;;;17.99;71.57
13420;BME280;6781;58.440;15.470;2022-07-10T09:25:44;100559.94;;;18.18;72.59
13420;BME280;6781;58.440;15.470;2022-07-10T09:28:13;100442.53;;;17.26;72.20
13420;BME280;6781;58.440;15.470;2022-07-10T09:30:44;100546.06;;;18.33;71.75
13420;BME280;6781;58.440;15.470;2022-07-10T09:33:16;100548.56;;;18.57;69.26
13420;BME280;6781;58.440;15.470;2022-07-10T09:36:00;100545.53;;;18.06;68.81
13420;BME280;6781;58.440;15.470;2022-07-10T09:38:51;100559.41;;;18.54;71.92
13420;BME280;6781;58.440;15.470;2022-07-10T09:41:20;100405.63;;;17.75;68.63
13420;BME280;6781;58.440;15.470;2022-07-10T09:43:49;100522.72;;;19.59;65.12
13420;BME280;6781;58.440;15.470;2022-07-10T09:46:18;100525.53;;;19.87;62.33
13420;BME280;6781;58.440;15.470;2022-07-10T09:48:45;100516.16;;;20.13;60.45
13420;BME280;6781;58.440;15.470;2022-07-10T09:51:12;100429.81;;;19.43;60.05
13420;BME280;6781;58.440;15.470;2022-07-10T09:53:41;100531.44;;;19.74;60.32
13420;BME280;6781;58.440;15.470;2022-07-10T09:56:09;100503.78;;;19.11;63.04
13420;BME280;6781;58.440;15.470;2022-07-10T09:58:37;100511.63;;;18.81;64.38
13420;BME280;6781;58.440;15.470;2022-07-10T10:01:06;100482.50;;;18.14;65.85
13420;BME280;6781;58.440;15.470;2022-07-10T10:03:35;100564.78;;;18.92;67.25
13420;BME280;6781;58.440;15.470;2022-07-10T10:06:04;100548.53;;;18.34;66.93
13420;BME280;6781;58.440;15.470;2022-07-10T10:08:41;100568.00;;;18.79;69.39
13420;BME280;6781;58.440;15.470;2022-07-10T10:11:14;100572.91;;;18.82;69.30
13420;BME280;6781;58.440;15.470;2022-07-10T10:13:42;100573.84;;;18.58;68.32
13420;BME280;6781;58.440;15.470;2022-07-10T10:16:10;100565.69;;;18.45;68.41
13420;BME280;6781;58.440;15.470;2022-07-10T10:18:38;100492.63;;;17.86;68.75
13420;BME280;6781;58.440;15.470;2022-07-10T10:21:27;100575.31;;;18.30;68.67
13420;BME280;6781;58.440;15.470;2022-07-10T10:23:54;100580.59;;;18.21;70.30
13420;BME280;6781;58.440;15.470;2022-07-10T10:26:22;100542.94;;;17.98;71.19
13420;BME280;6781;58.440;15.470;2022-07-10T10:28:51;100587.47;;;18.23;71.05
13420;BME280;6781;58.440;15.470;2022-07-10T10:31:20;100481.94;;;17.41;70.77
13420;BME280;6781;58.440;15.470;2022-07-10T10:33:48;100396.56;;;17.38;71.84
13420;BME280;6781;58.440;15.470;2022-07-10T10:36:45;100585.53;;;18.16;70.82
13420;BME280;6781;58.440;15.470;2022-07-10T10:39:14;100522.81;;;17.27;71.51
13420;BME280;6781;58.440;15.470;2022-07-10T10:41:44;100608.97;;;18.26;73.48
13420;BME280;6781;58.440;15.470;2022-07-10T10:44:25;100471.84;;;17.77;72.80
13420;BME280;6781;58.440;15.470;2022-07-10T10:46:56;100427.19;;;16.90;72.39
13420;BME280;6781;58.440;15.470;2022-07-10T10:49:50;100600.16;;;18.50;75.15
13420;BME280;6781;58.440;15.470;2022-07-10T10:52:18;100593.56;;;18.62;74.11
13420;BME280;6781;58.440;15.470;2022-07-10T10:55:03;100382.63;;;17.38;73.17
13420;BME280;6781;58.440;15.470;2022-07-10T10:57:41;100594.38;;;18.24;70.45
13420;BME280;6781;58.440;15.470;2022-07-10T11:00:15;100594.16;;;18.33;72.09
13420;BME280;6781;58.440;15.470;2022-07-10T11:02:43;100604.25;;;18.13;73.33
13420;BME280;6781;58.440;15.470;2022-07-10T11:05:43;100603.38;;;17.41;75.37
13420;BME280;6781;58.440;15.470;2022-07-10T11:08:11;100609.59;;;17.65;79.51
13420;BME280;6781;58.440;15.470;2022-07-10T11:10:39;100603.91;;;17.29;81.21
13420;BME280;6781;58.440;15.470;2022-07-10T11:13:07;100582.41;;;17.41;84.43
13420;BME280;6781;58.440;15.470;2022-07-10T11:15:37;100624.84;;;17.61;88.29
13420;BME280;6781;58.440;15.470;2022-07-10T11:18:05;100621.06;;;17.64;92.64
13420;BME280;6781;58.440;15.470;2022-07-10T11:20:34;100558.34;;;17.30;92.05
13420;BME280;6781;58.440;15.470;2022-07-10T11:26:09;100594.81;;;17.88;93.37
13420;BME280;6781;58.440;15.470;2022-07-10T11:28:53;100609.59;;;17.81;90.33
13420;BME280;6781;58.440;15.470;2022-07-10T11:31:21;100607.31;;;17.37;90.63
13420;BME280;6781;58.440;15.470;2022-07-10T11:33:49;100581.09;;;17.37;89.52
13420;BME280;6781;58.440;15.470;2022-07-10T11:36:17;100636.53;;;17.26;89.87
13420;BME280;6781;58.440;15.470;2022-07-10T11:38:47;100491.03;;;15.90;94.53
13420;BME280;6781;58.440;15.470;2022-07-10T11:41:17;100637.72;;;15.97;100.00
13420;BME280;6781;58.440;15.470;2022-07-10T11:43:49;100658.13;;;16.19;100.00
13420;BME280;6781;58.440;15.470;2022-07-10T11:46:16;100665.66;;;16.56;100.00
13420;BME280;6781;58.440;15.470;2022-07-10T11:48:44;100434.84;;;15.60;100.00
13420;BME280;6781;58.440;15.470;2022-07-10T11:51:22;100654.59;;;16.37;100.00
13420;BME280;6781;58.440;15.470;2022-07-10T11:53:57;100576.38;;;15.91;100.00
13420;BME280;6781;58.440;15.470;2022-07-10T11:56:26;100653.03;;;16.52;100.00
13420;BME280;6781;58.440;15.470;2022-07-10T11:58:55;100609.00;;;16.55;100.00
13420;BME280;6781;58.440;15.470;2022-07-10T12:01:22;100531.91;;;16.50;100.00
13420;BME280;6781;58.440;15.470;2022-07-10T12:03:59;100626.84;;;17.18;100.00
13420;BME280;6781;58.440;15.470;2022-07-10T12:06:28;100578.44;;;17.62;100.00
13420;BME280;6781;58.440;15.470;2022-07-10T12:08:56;100385.47;;;16.81;92.92
13420;BME280;6781;58.440;15.470;2022-07-10T12:11:31;100633.13;;;18.61;89.97
13420;BME280;6781;58.440;15.470;2022-07-10T12:14:13;100556.00;;;17.67;86.66
13420;BME280;6781;58.440;15.470;2022-07-10T12:16:41;100575.84;;;17.53;86.91
13420;BME280;6781;58.440;15.470;2022-07-10T12:19:11;100627.03;;;17.33;89.56
13420;BME280;6781;58.440;15.470;2022-07-10T12:21:38;100610.09;;;17.36;91.84
13420;BME280;6781;58.440;15.470;2022-07-10T12:24:05;100642.75;;;17.33;92.33
13420;BME280;6781;58.440;15.470;2022-07-10T12:26:35;100494.53;;;16.15;91.53
13420;BME280;6781;58.440;15.470;2022-07-10T12:29:03;100600.13;;;16.90;92.01
13420;BME280;6781;58.440;15.470;2022-07-10T12:31:31;100496.00;;;15.68;96.46
13420;BME280;6781;58.440;15.470;2022-07-10T12:33:59;100594.78;;;16.58;100.00
13420;BME280;6781;58.440;15.470;2022-07-10T12:36:41;100659.69;;;16.80;100.00
13420;BME280;6781;58.440;15.470;2022-07-10T12:39:10;100620.75;;;16.85;100.00
13420;BME280;6781;58.440;15.470;2022-07-10T12:41:58;100662.22;;;17.39;99.00
13420;BME280;6781;58.440;15.470;2022-07-10T12:44:32;100560.69;;;16.34;92.38
13420;BME280;6781;58.440;15.470;2022-07-10T12:47:00;100654.88;;;17.18;93.76
13420;BME280;6781;58.440;15.470;2022-07-10T12:49:27;100626.50;;;17.13;92.44
13420;BME280;6781;58.440;15.470;2022-07-10T12:51:54;100669.28;;;17.30;91.21
13420;BME280;6781;58.440;15.470;2022-07-10T12:54:34;100663.72;;;17.33;93.80
13420;BME280;6781;58.440;15.470;2022-07-10T12:57:04;100662.06;;;17.81;95.28
13420;BME280;6781;58.440;15.470;2022-07-10T12:59:33;100607.31;;;17.70;94.71
13420;BME280;6781;58.440;15.470;2022-07-10T13:02:14;100667.31;;;17.73;94.38
13420;BME280;6781;58.440;15.470;2022-07-10T13:04:51;100513.31;;;17.18;93.10
13420;BME280;6781;58.440;15.470;2022-07-10T13:07:18;100657.31;;;17.93;89.70
13420;BME280;6781;58.440;15.470;2022-07-10T13:09:47;100654.78;;;18.15;87.71
13420;BME280;6781;58.440;15.470;2022-07-10T13:12:17;100643.97;;;18.89;86.17
13420;BME280;6781;58.440;15.470;2022-07-10T13:14:43;100653.31;;;18.60;81.06
13420;BME280;6781;58.440;15.470;2022-07-10T13:17:10;100515.25;;;18.27;80.66
13420;BME280;6781;58.440;15.470;2022-07-10T13:19:37;100571.44;;;19.17;76.78
13420;BME280;6781;58.440;15.470;2022-07-10T13:22:04;100570.56;;;19.92;77.07
13420;BME280;6781;58.440;15.470;2022-07-10T13:24:30;100500.44;;;19.02;74.68
13420;BME280;6781;58.440;15.470;2022-07-10T13:26:57;100626.66;;;20.22;69.28